Airfield :







YOU CAN JOIN US ON...

 
LOGIN :

Register | Disclaimer

   EN    FR    IT 

 









Legend :    VFR   Marginal VFR   IFR   Intensive IFR   Very Intensive IFR
Visi :
Ceiling :
>= 8 km
>= 3000ft
5 to 8 km
1000 to 3000 ft
1500m to 5 km
500 to 1000 ft
800 to 1500m
200 to 500 ft
< 800m
< 200 ft
Symbols :   Thunderstorms  Fog  Heavy snow  Heavy precipitations  Wind > 20 kt






- Airport Elevation : 38 ft
- IATA code : YMH


CYMH - Mary's Harbour

CURRENT METAR :
  • 170418Z AUTO 29025G44KT 9SM OVC039 M01/M06 A2923 RMK SLP899

EXPIRED METARs :
  • 170401Z AUTO 29027G46KT 9SM -SN OVC047 M01/M06 A2922 RMK SLP897
  • 170356Z AUTO 29030G45KT 9SM OVC047 M01/M06 A2921 RMK SLP894
  • 170328Z AUTO 29029G47KT 9SM -SN BKN038 M01/M07 A2918 RMK SLP882
  • 170311Z AUTO 29026G51KT 9SM FEW024 M02/M07 A2917 RMK SLP880
  • 170300Z AUTO 29029G47KT 9SM -SN FEW024 SCT210 M02/M07 A2918 RMK SLP882
  • 170200Z AUTO 28027G45KT 9SM CLR M02/M06 A2914 RMK SLP871
  • 170154Z AUTO 29032G45KT 9SM CLR M02/M07 A2914 RMK SLP868

Expired Forecast.



MET'MAP, your aeronautical weather chart ! - Copyright ORBIFLY December 2007 - Disclaimer

ORBIFLY MET'MAP TEAM :

Programming & Development : Alexandra Zaïnal
Concept & Development : Baudouin d'Aumeries
Co-Development & Prog : Marc-Olivier Méhu
Technical & hardware support : Manuel Goepfert

Contact : metmap@orbifly.com




SOURCES & CREDITS :

   NOAA